METAR Data
IDs: Format: Raw Decoded Include TAF

Data at: 1302 UTC 23 Sep 2018

K24A 231245Z AUTO 00000KT M1/4SM FG OVC002 16/16 A3020 RMK AO2 LTG DSNT SE T01590158
K24A 231225Z AUTO 00000KT M1/4SM FG OVC002 16/15 A3019 RMK AO2 T01550154
K24A 231205Z AUTO 00000KT 5SM BR CLR 16/16 A3019 RMK AO2 T01590158
K24A 231145Z AUTO 00000KT 1SM FG OVC001 16/16 A3018 RMK AO2 VIS 1/4V5 T01580157 10173 20155
K24A 231125Z AUTO 00000KT M1/4SM FG OVC003 16/15 A3018 RMK AO2 T01550154
K24A 231105Z AUTO 00000KT 1 1/4SM BR SCT003 16/16 A3018 RMK AO2 T01630162
K24A 231045Z AUTO 00000KT 3/4SM BR BKN003 16/16 A3018 RMK AO2 LTG DSNT SE T01580157
K24A 231025Z AUTO 00000KT 3/4SM BR OVC001 16/16 A3018 RMK AO2 VIS 1/4V4 T01580157
K24A 231005Z AUTO 00000KT 3/4SM BR OVC001 16/16 A3017 RMK AO2 VIS 1/2V2 T01590158
K24A 230945Z AUTO 00000KT 1/4SM FG OVC001 16/16 A3017 RMK AO2 T01620161
K24A 230925Z AUTO 17004KT M1/4SM FG OVC002 16/16 A3018 RMK AO2 T01600158
K24A 230905Z AUTO 00000KT 3SM BR SCT002 17/16 A3018 RMK AO2 LTG DSNT SE T01660164
K24A 230845Z AUTO 00000KT 1/4SM FG OVC002 16/16 A3018 RMK AO2 VIS 1/4V5 LTG DSNT SE T01640162
K24A 230825Z AUTO 14004KT 3 1/2SM BR SCT002 BKN047 17/16 A3018 RMK AO2 T01660164
K24A 230805Z AUTO 00000KT 4SM BR SCT002 BKN045 17/16 A3018 RMK AO2 T01650163
K24A 230745Z AUTO 00000KT 5SM BR SCT001 17/16 A3018 RMK AO2 T01660163
K24A 230725Z AUTO 00000KT 4SM BR SCT001 17/16 A3018 RMK AO2 T01680165
K24A 230705Z AUTO 00000KT 5SM BR CLR 17/17 A3018 RMK AO2 LTG DSNT NW T01690166
K24A 230645Z AUTO 12006KT 7SM BR CLR 17/17 A3019 RMK AO2 T01700166
K24A 230625Z AUTO 13003KT 7SM CLR 17/17 A3019 RMK AO2 LTG DSNT SE T01720167
K24A 230605Z AUTO 11006KT 10SM CLR 17/17 A3019 RMK AO2 LTG DSNT SE T01730168
K24A 230545Z AUTO 14004KT 7SM BR CLR 17/17 A3020 RMK AO2 T01710167 10230 20171
K24A 230525Z AUTO 14003KT 7SM CLR 17/17 A3020 RMK AO2 T01740168
K24A 230505Z AUTO 00000KT 10SM SCT035 18/17 A3021 RMK AO2 T01750169
K24A 230445Z AUTO 13006KT 10SM SCT035 18/17 A3021 RMK AO2 T01750170
K24A 230425Z AUTO 12004KT 10SM SCT034 SCT041 18/17 A3021 RMK AO2 T01780170
K24A 230405Z AUTO 14005KT 10SM SCT034 BKN041 BKN049 18/17 A3021 RMK AO2 LTG DSNT NW T01800172
K24A 230345Z AUTO 00000KT 10SM SCT039 BKN047 18/17 A3021 RMK AO2 T01790173
K24A 230325Z AUTO 14007KT 10SM BKN038 BKN045 18/17 A3020 RMK AO2 T01800173
K24A 230305Z AUTO 12008KT 10SM BKN036 BKN042 18/17 A3020 RMK AO2 LTG DSNT NW T01850175
K24A 230245Z AUTO 13006KT 10SM SCT036 19/18 A3020 RMK AO2 LTG DSNT NW T01890176
K24A 230225Z AUTO 11003KT 10SM CLR 19/17 A3020 RMK AO2 T01860172
K24A 230205Z AUTO 12005KT 10SM CLR 19/18 A3020 RMK AO2 T01900178
K24A 230145Z AUTO 14007KT 10SM CLR 19/18 A3020 RMK AO2 T01940176
K24A 230125Z AUTO 13007KT 10SM SCT032 20/18 A3020 RMK AO2 LTG DSNT SE T02020175
K24A 230105Z AUTO 14004KT 10SM CLR 20/17 A3019 RMK AO2 LTG DSNT SE T02040172
K24A 230045Z AUTO 18003KT 10SM CLR 21/17 A3018 RMK AO2 LTG DSNT SE T02110174
K24A 230025Z AUTO 19004KT 10SM SCT055 22/17 A3017 RMK AO2 T02210171
K24A 230005Z AUTO 18003KT 10SM SCT055 22/17 A3017 RMK AO2 LTG DSNT SE T02230171
K24A 222345Z AUTO 17005KT 10SM CLR 23/17 A3017 RMK AO2 T02310169 10275 20229 402750146
K24A 222325Z AUTO 18007KT 10SM CLR 23/17 A3016 RMK AO2 LTG DSNT NW T02310170
K24A 222305Z AUTO 18006KT 10SM CLR 24/17 A3016 RMK AO2 LTG DSNT NW T02360170
K24A 222245Z AUTO 16006KT 10SM SCT100 24/17 A3016 RMK AO2 T02440171
K24A 222225Z AUTO 17005KT 10SM OVC100 25/17 A3015 RMK AO2 LTG DSNT NW T02490175
K24A 222205Z AUTO 15007KT 10SM OVC100 25/18 A3016 RMK AO2 LTG DSNT NW T02500179
K24A 222145Z AUTO 11004KT 10SM BKN100 24/19 A3015 RMK AO2 LTG DSNT NW T02420186
K24A 222125Z AUTO 11003KT 10SM OVC100 24/19 A3015 RMK AO2 T02430186
K24A 222105Z AUTO 12003KT 10SM VCTS BKN080 OVC090 24/19 A3015 RMK AO2 LTG DSNT NW T02400186
K24A 222045Z AUTO 15005KT 10SM SCT060 BKN080 OVC090 24/18 A3016 RMK AO2 LTG DSNT SE AND NW T02390177
K24A 222025Z AUTO 17010KT 10SM BKN080 OVC090 24/17 A3016 RMK AO2 LTG DSNT SE T02390175
K24A 222005Z AUTO 18007KT 10SM SCT060 OVC080 24/17 A3016 RMK AO2 T02420173
K24A 221945Z AUTO 19007KT 10SM OVC070 24/17 A3017 RMK AO2 T02450172
K24A 221925Z AUTO 18008KT 10SM SCT044 OVC070 25/17 A3018 RMK AO2 T02520174
K24A 221905Z AUTO 19003KT 10SM SCT044 SCT065 BKN070 26/18 A3018 RMK AO2 T02610176
K24A 221845Z AUTO 00000KT 10SM SCT041 SCT050 26/17 A3019 RMK AO2 T02600168
K24A 221825Z AUTO 00000KT 10SM SCT039 SCT050 25/17 A3020 RMK AO2 T02540170
K24A 221805Z AUTO 00000KT 10SM SCT037 26/18 A3021 RMK AO2 T02600176
K24A 221745Z AUTO 00000KT 10SM BKN037 26/18 A3022 RMK AO2 T02580178 10270 20146
K24A 221725Z AUTO 00000KT 10SM SCT033 26/18 A3022 RMK AO2 T02580181
K24A 221705Z AUTO 00000KT 10SM CLR 25/18 A3023 RMK AO2 LTG DSNT SE T02540183
K24A 221645Z AUTO 00000KT 10SM CLR 24/19 A3024 RMK AO2 LTG DSNT SE T02440186
K24A 221625Z AUTO 00000KT 10SM CLR 24/18 A3024 RMK AO2 T02370179
K24A 221605Z AUTO 00000KT 10SM CLR 22/18 A3024 RMK AO2 LTG DSNT SE T02200181
K24A 221545Z AUTO 00000KT 10SM CLR 22/18 A3024 RMK AO2 T02200185
K24A 221525Z AUTO 00000KT 10SM CLR 21/18 A3025 RMK AO2 T02050179
K24A 221505Z AUTO 00000KT 10SM CLR 20/17 A3025 RMK AO2 T01970175
K24A 221445Z AUTO 00000KT 10SM CLR 19/17 A3025 RMK AO2 T01890171
K24A 221425Z AUTO 00000KT 10SM SCT002 18/17 A3025 RMK AO2 T01790168
K24A 221405Z AUTO 00000KT 1/4SM FG OVC002 17/17 A3025 RMK AO2 T01660165
K24A 221345Z AUTO 00000KT M1/4SM FG OVC002 16/16 A3025 RMK AO2 T01630162
K24A 221325Z AUTO 00000KT 1/4SM FG OVC002 16/16 A3025 RMK AO2 T01620162
K24A 221305Z AUTO 00000KT M1/4SM FG OVC002 15/15 A3025 RMK AO2 T01540153
K24A 221245Z AUTO 00000KT M1/4SM FG OVC002 15/15 A3025 RMK AO2 T01520151
K24A 221225Z AUTO 00000KT M1/4SM FG OVC002 15/15 A3025 RMK AO2 T01510150
K24A 221205Z AUTO 00000KT M1/4SM FG OVC002 15/15 A3025 RMK AO2 T01480147
K24A 221145Z AUTO 00000KT M1/4SM FG OVC001 15/15 A3025 RMK AO2 LTG DSNT SE T01460145 10171 20146
K24A 221125Z AUTO 00000KT M1/4SM FG OVC002 15/15 A3025 RMK AO2 T01470146
K24A 221105Z AUTO 00000KT 1/2SM FG OVC002 15/15 A3025 RMK AO2 T01480147
K24A 221045Z AUTO 00000KT 1/4SM FG OVC002 15/15 A3024 RMK AO2 T01490148
K24A 221025Z AUTO 00000KT 1SM BR OVC002 15/15 A3025 RMK AO2 VIS 1/2V2 1/2 LTG DSNT NW T01510150
K24A 221005Z AUTO 00000KT 1/2SM FG OVC002 15/15 A3025 RMK AO2 T01510149
K24A 220945Z AUTO 00000KT 7SM BR CLR 15/15 A3025 RMK AO2 T01550152
K24A 220925Z AUTO 14003KT 7SM BR SCT002 16/15 A3024 RMK AO2 LTG DSNT SE T01560153
K24A 220905Z AUTO 00000KT 3/4SM FG OVC002 15/15 A3024 RMK AO2 VIS 1/4V5 T01550153
K24A 220845Z AUTO 16004KT 5SM BR SCT002 16/16 A3025 RMK AO2 T01580155
K24A 220825Z AUTO 00000KT 2 1/2SM BR SCT002 16/16 A3025 RMK AO2 LTG DSNT SE T01590156
K24A 220805Z AUTO 00000KT 10SM CLR 16/16 A3025 RMK AO2 T01620158
K24A 220745Z AUTO 00000KT 7SM CLR 16/16 A3025 RMK AO2 LTG DSNT SE AND W T01620158
K24A 220725Z AUTO 00000KT 5SM BR SCT001 16/16 A3026 RMK AO2 T01620159
K24A 220705Z AUTO 00000KT 7SM BR CLR 16/16 A3026 RMK AO2 T01620159
K24A 220645Z AUTO 14004KT 10SM CLR 16/16 A3026 RMK AO2 LTG DSNT S AND NW T01640159
K24A 220625Z AUTO 14005KT 7SM CLR 17/16 A3027 RMK AO2 T01650161
K24A 220605Z AUTO 00000KT 7SM CLR 17/16 A3027 RMK AO2 LTG DSNT SE T01680163
K24A 220545Z AUTO 14005KT 10SM CLR 17/16 A3028 RMK AO2 LTG DSNT SE T01710163 10221 20171
K24A 220525Z AUTO 17004KT 10SM CLR 17/16 A3028 RMK AO2 T01740164
K24A 220505Z AUTO 00000KT 10SM SCT100 17/17 A3028 RMK AO2 LTG DSNT NW T01710165
K24A 220445Z AUTO 12004KT 10SM BKN110 17/17 A3027 RMK AO2 T01750165
K24A 220425Z AUTO 13005KT 10SM OVC110 18/17 A3028 RMK AO2 LTG DSNT SE T01770167
K24A 220405Z AUTO 11005KT 10SM BKN100 18/17 A3027 RMK AO2 LTG DSNT SE T01810167
K24A 220345Z AUTO 13008KT 10SM VCTS SCT100 18/17 A3027 RMK AO2 LTG DSNT NW T01800169
K24A 220325Z AUTO 14007KT 10SM SCT100 18/17 A3029 RMK AO2 LTG DSNT NW T01830169
K24A 220305Z AUTO 00000KT 10SM SCT100 18/17 A3028 RMK AO2 T01820168
K24A 220245Z AUTO 14007KT 10SM CLR 19/17 A3027 RMK AO2 T01850169
K24A 220225Z AUTO 12004KT 10SM CLR 19/17 A3027 RMK AO2 T01910168
K24A 220205Z AUTO 13006KT 10SM CLR 19/17 A3027 RMK AO2 LTG DSNT SE T01910170
K24A 220145Z AUTO 13006KT 10SM SCT100 19/17 A3027 RMK AO2 LTG DSNT NW T01940171
K24A 220125Z AUTO 13007KT 10SM SCT100 20/17 A3026 RMK AO2 T02010169
K24A 220105Z AUTO 14005KT 10SM SCT110 20/17 A3026 RMK AO2 LTG DSNT SE AND NW T02020169